createdAt,value
2022-11-24T00:01:29.534Z,0.30
2022-11-24T00:04:00.051Z,0.30
2022-11-24T00:06:30.041Z,0.30
2022-11-24T00:08:58.873Z,0.10
2022-11-24T00:11:33.290Z,0.30
2022-11-24T00:14:02.276Z,0.30
2022-11-24T00:16:33.733Z,0.50
2022-11-24T00:19:05.059Z,0.40
2022-11-24T00:21:33.365Z,0.50
2022-11-24T00:24:02.256Z,0.40
2022-11-24T00:26:32.698Z,0.30
2022-11-24T00:29:03.522Z,0.40
2022-11-24T00:31:36.942Z,0.30
2022-11-24T00:34:12.242Z,0.50
2022-11-24T00:36:44.533Z,0.30
2022-11-24T00:39:14.974Z,0.40
2022-11-24T00:41:43.346Z,0.20
2022-11-24T00:44:11.544Z,0.30
2022-11-24T00:46:40.567Z,0.30
2022-11-24T00:49:09.516Z,0.30
2022-11-24T00:51:37.696Z,0.30
2022-11-24T00:54:05.936Z,0.30
2022-11-24T00:56:34.051Z,0.60
2022-11-24T00:59:02.236Z,0.30
2022-11-24T01:01:31.273Z,0.60
2022-11-24T01:04:00.650Z,0.20
2022-11-24T01:06:29.819Z,0.30
2022-11-24T01:08:58.527Z,0.20
2022-11-24T01:11:29.708Z,0.30
2022-11-24T01:13:59.697Z,0.30
2022-11-24T01:16:35.347Z,0.40
2022-11-24T01:19:03.519Z,0.40
2022-11-24T01:21:31.719Z,0.30
2022-11-24T01:24:00.286Z,0.30
2022-11-24T01:26:28.258Z,0.30
2022-11-24T01:28:57.676Z,0.40
2022-11-24T01:31:26.908Z,0.20
2022-11-24T01:33:55.564Z,0.30
2022-11-24T01:36:24.148Z,0.30
2022-11-24T01:38:52.329Z,0.20
2022-11-24T01:41:25.712Z,0.20
2022-11-24T01:43:55.347Z,0.30
2022-11-24T01:46:33.895Z,0.30
2022-11-24T01:49:21.977Z,0.50
2022-11-24T01:51:53.227Z,0.30
2022-11-24T01:54:26.011Z,0.30
2022-11-24T01:57:00.737Z,0.40
2022-11-24T01:59:29.272Z,0.40
2022-11-24T02:01:57.851Z,0.60
2022-11-24T02:04:30.909Z,0.40
2022-11-24T02:07:02.077Z,0.30
2022-11-24T02:09:39.445Z,0.40
2022-11-24T02:14:39.169Z,0.60
2022-11-24T02:17:07.754Z,0.50
2022-11-24T02:19:46.883Z,0.50
2022-11-24T02:22:40.237Z,0.50
2022-11-24T02:25:36.250Z,0.50
2022-11-24T02:28:08.763Z,0.70
2022-11-24T02:30:37.517Z,0.50
2022-11-24T02:33:05.899Z,0.40
2022-11-24T02:35:34.696Z,0.40
2022-11-24T02:38:02.979Z,0.60
2022-11-24T02:40:31.664Z,0.50
2022-11-24T02:43:13.725Z,0.50
2022-11-24T02:45:41.940Z,0.50
2022-11-24T02:48:10.117Z,0.50
2022-11-24T02:50:38.300Z,0.70
2022-11-24T02:53:06.473Z,0.50
2022-11-24T02:55:34.649Z,0.50
2022-11-24T02:58:03.341Z,0.60
2022-11-24T03:00:31.621Z,0.60
2022-11-24T03:02:59.719Z,0.40
2022-11-24T03:05:28.386Z,0.60
2022-11-24T03:07:56.617Z,0.50
2022-11-24T03:10:25.050Z,0.50
2022-11-24T03:12:54.376Z,0.70
2022-11-24T03:15:23.657Z,0.50
2022-11-24T03:17:54.997Z,0.40
2022-11-24T03:20:23.496Z,0.40
2022-11-24T03:22:51.983Z,0.60
2022-11-24T03:25:20.569Z,0.50
2022-11-24T03:27:49.667Z,0.40
2022-11-24T03:30:17.947Z,0.50
2022-11-24T03:32:46.645Z,0.40
2022-11-24T03:35:14.816Z,0.50
2022-11-24T03:37:42.892Z,0.30
2022-11-24T03:40:11.582Z,0.60
2022-11-24T03:42:40.688Z,0.30
2022-11-24T03:45:38.004Z,0.30
2022-11-24T03:47:57.301Z,0.30
2022-11-24T03:50:25.588Z,0.40
2022-11-24T03:52:54.022Z,0.40
2022-11-24T03:55:22.251Z,0.30
2022-11-24T03:57:50.526Z,0.30
2022-11-24T04:00:18.604Z,0.30
2022-11-24T04:02:46.797Z,0.50
2022-11-24T04:05:15.470Z,0.40
2022-11-24T04:07:43.617Z,0.40
2022-11-24T04:10:12.340Z,0.30
2022-11-24T04:12:40.517Z,0.30
2022-11-24T04:15:09.004Z,0.40
2022-11-24T04:17:37.181Z,0.30
2022-11-24T04:20:06.282Z,0.30
2022-11-24T04:22:34.253Z,0.40
2022-11-24T04:25:03.659Z,0.30
2022-11-24T04:27:36.348Z,0.30
2022-11-24T04:30:06.386Z,0.40
2022-11-24T04:32:35.056Z,0.40
2022-11-24T04:35:04.285Z,0.40
2022-11-24T04:37:33.045Z,0.40
2022-11-24T04:40:01.129Z,0.40
2022-11-24T04:42:29.301Z,0.40
2022-11-24T04:44:57.477Z,0.40
2022-11-24T04:47:27.221Z,0.60
2022-11-24T04:49:55.471Z,0.50
2022-11-24T04:52:24.908Z,0.40
2022-11-24T04:54:53.182Z,0.60
2022-11-24T04:57:27.413Z,0.40
2022-11-24T04:59:55.554Z,0.50
2022-11-24T05:02:23.938Z,0.60
2022-11-24T05:04:52.713Z,0.40
2022-11-24T05:07:20.864Z,0.60
2022-11-24T05:09:59.396Z,0.50
2022-11-24T05:12:28.520Z,0.40
2022-11-24T05:15:00.067Z,0.50
2022-11-24T05:17:39.203Z,0.60
2022-11-24T05:20:08.199Z,0.60
2022-11-24T05:22:36.276Z,0.70
2022-11-24T05:25:05.069Z,0.60
2022-11-24T05:27:33.352Z,0.70
2022-11-24T05:30:01.526Z,0.70
2022-11-24T05:32:29.997Z,0.70
2022-11-24T05:34:58.399Z,0.70
2022-11-24T05:37:29.238Z,0.70
2022-11-24T05:39:57.724Z,0.50
2022-11-24T05:42:25.932Z,0.60
2022-11-24T05:44:54.200Z,0.60
2022-11-24T05:47:23.175Z,0.70
2022-11-24T05:49:51.362Z,0.70
2022-11-24T05:52:19.739Z,0.60
2022-11-24T05:54:48.325Z,0.80
2022-11-24T05:57:19.507Z,1.00
2022-11-24T05:59:48.060Z,0.70
2022-11-24T06:02:16.330Z,0.90
2022-11-24T06:04:44.829Z,0.80
2022-11-24T06:07:13.868Z,1.00
2022-11-24T06:09:42.419Z,0.90
2022-11-24T06:12:12.024Z,1.00
2022-11-24T06:14:40.742Z,0.80
2022-11-24T06:17:10.687Z,1.00
2022-11-24T06:19:42.035Z,0.70
2022-11-24T06:22:10.879Z,1.10
2022-11-24T06:24:39.059Z,1.10
2022-11-24T06:27:07.233Z,0.90
2022-11-24T06:29:35.309Z,1.10
2022-11-24T06:32:04.277Z,0.70
2022-11-24T06:34:32.767Z,1.00
2022-11-24T06:37:01.790Z,1.10
2022-11-24T06:39:30.175Z,0.80
2022-11-24T06:41:59.071Z,0.70
2022-11-24T06:44:27.569Z,0.80
2022-11-24T06:46:56.144Z,0.90
2022-11-24T06:49:24.534Z,0.80
2022-11-24T06:51:55.097Z,0.90
2022-11-24T06:54:23.332Z,1.00
2022-11-24T06:56:56.865Z,0.70
2022-11-24T06:59:25.614Z,1.00
2022-11-24T07:01:54.211Z,0.80
2022-11-24T07:04:22.800Z,0.80
2022-11-24T07:06:50.976Z,1.10
2022-11-24T07:09:19.360Z,0.90
2022-11-24T07:11:47.947Z,0.90
2022-11-24T07:14:16.033Z,0.90
2022-11-24T07:16:44.251Z,0.80
2022-11-24T07:19:12.585Z,0.80
2022-11-24T07:21:40.766Z,1.10
2022-11-24T07:24:10.377Z,0.90
2022-11-24T07:26:38.758Z,0.80
2022-11-24T07:29:06.935Z,1.10
2022-11-24T07:31:35.295Z,0.90
2022-11-24T07:34:03.810Z,0.80
2022-11-24T07:36:31.886Z,0.50
2022-11-24T07:39:00.279Z,0.50
2022-11-24T07:41:28.529Z,0.70
2022-11-24T07:43:56.723Z,0.60
2022-11-24T07:46:25.477Z,0.50
2022-11-24T07:48:53.992Z,0.50
2022-11-24T07:51:22.078Z,0.50
2022-11-24T07:53:50.258Z,0.60
2022-11-24T07:56:18.534Z,0.60
2022-11-24T07:58:52.517Z,0.70
2022-11-24T08:01:21.320Z,0.60
2022-11-24T08:03:49.978Z,0.60
2022-11-24T08:06:29.041Z,0.80
2022-11-24T08:09:00.748Z,0.70
2022-11-24T08:11:29.111Z,0.60
2022-11-24T08:13:58.620Z,0.50
2022-11-24T08:16:27.249Z,0.70
2022-11-24T08:18:56.400Z,0.60
2022-11-24T08:21:25.400Z,0.70
2022-11-24T08:23:57.667Z,0.60
2022-11-24T08:26:26.557Z,0.60
2022-11-24T08:28:57.705Z,0.60
2022-11-24T08:31:27.921Z,0.70
2022-11-24T08:33:56.254Z,0.70
2022-11-24T08:36:24.497Z,0.50
2022-11-24T08:38:57.785Z,0.90
2022-11-24T08:41:27.088Z,0.60
2022-11-24T08:43:56.082Z,0.80
2022-11-24T08:46:25.161Z,0.70
2022-11-24T08:48:55.520Z,0.60
2022-11-24T08:51:26.422Z,0.60
2022-11-24T08:54:00.018Z,0.40
2022-11-24T08:56:30.585Z,0.50
2022-11-24T08:58:59.923Z,0.50
2022-11-24T09:01:28.895Z,0.70
2022-11-24T09:03:57.873Z,0.90
2022-11-24T09:06:28.826Z,0.90
2022-11-24T09:08:57.999Z,0.70
2022-11-24T09:11:26.934Z,0.70
2022-11-24T09:13:56.061Z,0.90
2022-11-24T09:16:27.926Z,1.40
2022-11-24T09:19:01.484Z,1.10
2022-11-24T09:21:32.020Z,1.20
2022-11-24T09:24:00.503Z,1.40
2022-11-24T09:26:31.161Z,1.40
2022-11-24T09:29:00.443Z,1.50
2022-11-24T09:31:32.333Z,1.50
2022-11-24T09:34:02.034Z,2.10
2022-11-24T09:36:30.300Z,2.20
2022-11-24T09:38:59.302Z,2.60
2022-11-24T09:41:54.594Z,2.90
2022-11-24T09:44:57.565Z,4.30
2022-11-24T09:47:44.470Z,4.80
2022-11-24T09:50:37.434Z,5.60
2022-11-24T09:53:24.129Z,5.70
2022-11-24T09:55:56.497Z,6.20
2022-11-24T09:58:40.461Z,5.50
2022-11-24T10:01:14.452Z,5.90
2022-11-24T10:03:45.242Z,5.00
2022-11-24T10:06:22.725Z,4.00
2022-11-24T10:09:06.207Z,4.40
2022-11-24T10:11:44.811Z,3.90
2022-11-24T10:14:42.456Z,4.00
2022-11-24T10:17:16.783Z,3.30
2022-11-24T10:19:51.605Z,2.70
2022-11-24T10:22:38.820Z,2.40
2022-11-24T10:25:19.074Z,2.60
2022-11-24T10:28:03.009Z,2.90
2022-11-24T10:30:31.715Z,2.10
2022-11-24T10:33:20.769Z,1.90
2022-11-24T10:36:06.652Z,2.10
2022-11-24T10:39:03.777Z,2.20
2022-11-24T10:41:57.026Z,2.60
2022-11-24T10:44:25.859Z,3.40
2022-11-24T10:46:54.259Z,2.90
2022-11-24T10:49:27.573Z,3.00
2022-11-24T10:52:16.707Z,3.00
2022-11-24T10:54:59.845Z,2.90
2022-11-24T10:57:36.723Z,3.40
2022-11-24T11:00:24.788Z,3.80
2022-11-24T11:03:12.649Z,3.60
2022-11-24T11:05:44.978Z,3.40
2022-11-24T11:08:32.295Z,3.90
2022-11-24T11:11:12.754Z,4.10
2022-11-24T11:13:48.607Z,3.40
2022-11-24T11:16:26.998Z,3.40
2022-11-24T11:18:55.298Z,2.60
2022-11-24T11:21:34.221Z,2.50
2022-11-24T11:24:22.150Z,2.40
2022-11-24T11:27:00.462Z,2.50
2022-11-24T11:35:14.138Z,1.60
2022-11-24T11:37:44.443Z,1.50
2022-11-24T11:40:17.841Z,1.30
2022-11-24T11:43:08.058Z,1.00
2022-11-24T11:45:41.763Z,1.40
2022-11-24T11:48:40.657Z,1.20
2022-11-24T11:51:30.283Z,1.30
2022-11-24T11:54:08.126Z,1.00
2022-11-24T11:56:43.419Z,0.90
2022-11-24T11:59:24.072Z,0.90
2022-11-24T12:02:22.013Z,1.00
2022-11-24T12:05:25.003Z,0.80
2022-11-24T12:08:20.695Z,1.00
2022-11-24T12:10:55.330Z,1.10
2022-11-24T12:13:43.291Z,1.00
2022-11-24T12:16:39.685Z,0.90
2022-11-24T12:19:14.109Z,1.10
2022-11-24T12:21:55.303Z,0.70
2022-11-24T12:24:40.885Z,1.10
2022-11-24T12:27:24.277Z,0.90
2022-11-24T12:29:58.408Z,1.00
2022-11-24T12:32:45.502Z,0.90
2022-11-24T12:35:26.572Z,1.20
2022-11-24T12:38:40.425Z,1.40
2022-11-24T12:44:36.015Z,1.30
2022-11-24T12:47:17.584Z,1.40
2022-11-24T12:50:02.381Z,1.30
2022-11-24T12:52:38.297Z,1.30
2022-11-24T12:55:16.475Z,1.20
2022-11-24T12:58:09.316Z,1.60
2022-11-24T13:00:55.430Z,1.10
2022-11-24T13:03:58.093Z,1.30
2022-11-24T13:06:49.423Z,1.30
2022-11-24T13:09:18.280Z,1.50
2022-11-24T13:11:50.499Z,1.40
2022-11-24T13:14:21.305Z,1.10
2022-11-24T13:17:29.044Z,1.10
2022-11-24T13:19:48.770Z,0.80
2022-11-24T13:22:24.622Z,1.40
2022-11-24T13:25:16.543Z,1.10
2022-11-24T13:27:48.246Z,1.00
2022-11-24T13:30:53.719Z,1.20
2022-11-24T13:33:33.050Z,1.20
2022-11-24T13:36:04.413Z,1.10
2022-11-24T13:38:52.205Z,1.10
2022-11-24T13:41:32.389Z,1.00
2022-11-24T13:44:16.245Z,2.00
2022-11-24T13:47:31.684Z,0.80
2022-11-24T13:50:01.433Z,1.00
2022-11-24T13:52:39.091Z,0.90
2022-11-24T13:55:13.931Z,0.90
2022-11-24T13:58:14.130Z,1.00
2022-11-24T14:01:02.979Z,0.90
2022-11-24T14:04:32.915Z,1.10
2022-11-24T14:07:09.180Z,0.90
2022-11-24T14:09:42.628Z,1.10
2022-11-24T14:12:18.174Z,1.00
2022-11-24T14:14:48.782Z,0.80
2022-11-24T14:17:27.975Z,1.00
2022-11-24T14:19:58.291Z,1.10
2022-11-24T14:22:39.172Z,0.90
2022-11-24T14:25:23.169Z,1.00
2022-11-24T14:27:51.849Z,1.10
2022-11-24T14:30:23.115Z,0.90
2022-11-24T14:32:59.951Z,0.80
2022-11-24T14:35:35.250Z,0.80
2022-11-24T14:38:05.912Z,1.00
2022-11-24T14:40:46.143Z,1.20
2022-11-24T14:43:23.397Z,1.10
2022-11-24T14:45:58.396Z,1.70
2022-11-24T14:48:29.854Z,1.40
2022-11-24T14:51:23.241Z,2.10
2022-11-24T14:53:54.559Z,1.70
2022-11-24T14:56:35.007Z,2.10
2022-11-24T14:59:05.071Z,2.10
2022-11-24T15:01:34.923Z,1.80
2022-11-24T15:04:26.936Z,2.00
2022-11-24T15:07:12.371Z,1.70
2022-11-24T15:09:52.548Z,2.30
2022-11-24T15:12:39.209Z,2.40
2022-11-24T15:15:23.268Z,2.30
2022-11-24T15:17:57.433Z,2.30
2022-11-24T15:20:40.300Z,2.50
2022-11-24T15:23:20.782Z,2.90
2022-11-24T15:25:51.116Z,2.50
2022-11-24T15:28:19.368Z,2.40
2022-11-24T15:30:47.448Z,2.80
2022-11-24T15:33:19.920Z,2.80
2022-11-24T15:35:48.300Z,2.50
2022-11-24T15:38:16.785Z,2.80
2022-11-24T15:40:47.744Z,3.30
2022-11-24T15:43:22.162Z,2.50
2022-11-24T15:45:50.332Z,3.20
2022-11-24T15:48:18.680Z,3.20
2022-11-24T15:50:48.428Z,2.70
2022-11-24T15:53:21.826Z,1.80
2022-11-24T15:55:50.619Z,2.20
2022-11-24T15:58:18.907Z,2.40
2022-11-24T16:00:47.348Z,2.90
2022-11-24T16:03:45.883Z,2.80
2022-11-24T16:06:03.896Z,2.90
2022-11-24T16:08:32.276Z,2.60
2022-11-24T16:11:00.457Z,3.00
2022-11-24T16:13:28.622Z,3.20
2022-11-24T16:15:57.026Z,2.90
2022-11-24T16:18:25.297Z,2.80
2022-11-24T16:20:53.695Z,2.60
2022-11-24T16:23:21.968Z,3.30
2022-11-24T16:25:50.141Z,3.00
2022-11-24T16:28:18.424Z,2.70
2022-11-24T16:30:50.632Z,3.20
2022-11-24T16:33:18.870Z,2.80
2022-11-24T16:35:48.177Z,2.90
2022-11-24T16:38:17.711Z,3.50
2022-11-24T16:40:51.800Z,3.40
2022-11-24T16:43:20.324Z,2.70
2022-11-24T16:46:03.643Z,2.80
2022-11-24T16:48:36.290Z,3.30
2022-11-24T16:51:09.369Z,3.90
2022-11-24T16:53:38.476Z,2.70
2022-11-24T16:56:07.474Z,3.10
2022-11-24T16:58:40.865Z,3.10
2022-11-24T17:01:12.690Z,3.10
2022-11-24T17:03:41.639Z,3.50
2022-11-24T17:06:13.808Z,3.40
2022-11-24T17:08:43.605Z,3.80
2022-11-24T17:11:13.651Z,2.70
2022-11-24T17:13:43.221Z,3.70
2022-11-24T17:16:16.134Z,3.80
2022-11-24T17:18:45.023Z,3.60
2022-11-24T17:21:15.874Z,3.70
2022-11-24T17:23:44.358Z,2.80
2022-11-24T17:26:14.744Z,3.80
2022-11-24T17:28:43.877Z,3.00
2022-11-24T17:31:23.938Z,3.30
2022-11-24T17:33:55.036Z,3.40
2022-11-24T17:36:23.664Z,2.90
2022-11-24T17:38:52.149Z,3.10
2022-11-24T17:41:21.549Z,3.70
2022-11-24T17:43:55.113Z,3.00
2022-11-24T17:46:24.312Z,4.20
2022-11-24T17:48:52.639Z,4.00
2022-11-24T17:51:23.580Z,3.30
2022-11-24T17:53:53.708Z,3.90
2022-11-24T17:56:24.476Z,3.60
2022-11-24T17:59:00.498Z,3.80
2022-11-24T18:01:29.358Z,3.20
2022-11-24T18:03:58.794Z,3.70
2022-11-24T18:06:27.500Z,3.00
2022-11-24T18:08:57.508Z,3.20
2022-11-24T18:11:31.756Z,3.00
2022-11-24T18:14:03.375Z,3.70
2022-11-24T18:16:34.449Z,3.80
2022-11-24T18:19:09.329Z,3.90
2022-11-24T18:21:41.931Z,3.70
2022-11-24T18:24:11.841Z,3.60
2022-11-24T18:26:41.513Z,4.00
2022-11-24T18:29:11.175Z,3.00
2022-11-24T18:31:39.842Z,4.00
2022-11-24T18:34:08.354Z,4.90
2022-11-24T18:36:37.282Z,4.70
2022-11-24T18:39:07.684Z,4.60
2022-11-24T18:41:36.774Z,5.00
2022-11-24T18:44:04.826Z,4.70
2022-11-24T18:46:33.234Z,5.50
2022-11-24T18:49:01.678Z,5.60
2022-11-24T18:51:30.308Z,6.70
2022-11-24T18:53:58.590Z,5.80
2022-11-24T18:56:27.209Z,6.60
2022-11-24T18:58:58.744Z,6.50
2022-11-24T19:01:29.075Z,6.90
2022-11-24T19:03:59.262Z,7.80
2022-11-24T19:06:33.597Z,8.50
2022-11-24T19:09:08.336Z,7.40
2022-11-24T19:11:39.062Z,6.90
2022-11-24T19:14:09.502Z,5.80
2022-11-24T19:16:37.760Z,5.60
2022-11-24T19:19:05.957Z,5.40
2022-11-24T19:21:36.387Z,5.00
2022-11-24T19:24:06.076Z,4.90
2022-11-24T19:26:34.692Z,4.40
2022-11-24T19:29:04.813Z,4.60
2022-11-24T19:31:34.111Z,3.70
2022-11-24T19:34:02.998Z,3.70
2022-11-24T19:36:32.342Z,3.20
2022-11-24T19:39:00.460Z,4.00
2022-11-24T19:41:31.024Z,2.50
2022-11-24T19:44:00.122Z,2.60
2022-11-24T19:46:29.840Z,2.70
2022-11-24T19:49:02.409Z,2.90
2022-11-24T19:51:33.169Z,2.60
2022-11-24T19:54:03.379Z,2.90
2022-11-24T19:56:34.158Z,2.50
2022-11-24T19:59:04.540Z,2.80
2022-11-24T20:01:35.594Z,3.20
2022-11-24T20:04:08.899Z,2.80
2022-11-24T20:06:39.473Z,4.00
2022-11-24T20:09:10.465Z,3.10
2022-11-24T20:11:39.552Z,2.60
2022-11-24T20:14:11.252Z,2.80
2022-11-24T20:16:40.090Z,2.50
2022-11-24T20:19:14.890Z,2.70
2022-11-24T20:21:43.938Z,2.70
2022-11-24T20:24:18.318Z,2.30
2022-11-24T20:26:49.504Z,2.40
2022-11-24T20:29:18.875Z,2.30
2022-11-24T20:31:49.871Z,2.80
2022-11-24T20:34:18.026Z,2.50
2022-11-24T20:36:47.749Z,2.50
2022-11-24T20:39:20.424Z,2.20
2022-11-24T20:41:48.911Z,1.90
2022-11-24T20:44:18.537Z,2.10
2022-11-24T20:46:48.441Z,1.90
2022-11-24T20:49:19.512Z,2.10
2022-11-24T20:51:47.741Z,2.40
2022-11-24T20:54:18.214Z,1.80
2022-11-24T20:56:47.907Z,2.10
2022-11-24T20:59:21.939Z,2.10
2022-11-24T21:01:51.462Z,2.30
2022-11-24T21:04:22.785Z,2.30
2022-11-24T21:06:51.061Z,2.30
2022-11-24T21:09:19.434Z,2.70
2022-11-24T21:11:49.147Z,2.70
2022-11-24T21:14:17.299Z,3.10
2022-11-24T21:16:45.849Z,2.70
2022-11-24T21:19:15.679Z,2.40
2022-11-24T21:21:44.593Z,3.20
2022-11-24T21:24:18.232Z,3.50
2022-11-24T21:26:47.160Z,2.90
2022-11-24T21:29:16.952Z,3.00
2022-11-24T21:31:45.794Z,2.80
2022-11-24T21:34:16.856Z,3.20
2022-11-24T21:36:45.796Z,3.20
2022-11-24T21:39:15.230Z,3.50
2022-11-24T21:41:43.673Z,3.40
2022-11-24T21:44:13.562Z,3.60
2022-11-24T21:46:49.351Z,3.60
2022-11-24T21:49:19.355Z,3.30
2022-11-24T21:51:48.168Z,3.80
2022-11-24T21:54:16.321Z,4.20
2022-11-24T21:56:44.497Z,3.90
2022-11-24T21:59:12.678Z,4.20
2022-11-24T22:01:40.933Z,4.20
2022-11-24T22:04:09.856Z,4.30
2022-11-24T22:06:38.237Z,4.50
2022-11-24T22:09:06.618Z,5.60
2022-11-24T22:11:34.899Z,5.50
2022-11-24T22:14:02.975Z,6.10
2022-11-24T22:16:31.060Z,5.40
2022-11-24T22:19:00.386Z,5.00
2022-11-24T22:21:28.741Z,5.90
2022-11-24T22:23:57.130Z,6.70
2022-11-24T22:26:27.176Z,6.40
2022-11-24T22:28:57.473Z,5.60
2022-11-24T22:31:33.565Z,6.00
2022-11-24T22:34:02.421Z,6.10
2022-11-24T22:36:30.915Z,5.60
2022-11-24T22:39:02.276Z,5.30
2022-11-24T22:41:33.521Z,5.40
2022-11-24T22:44:02.808Z,5.50
2022-11-24T22:46:31.981Z,5.60
2022-11-24T22:49:01.321Z,5.70
2022-11-24T22:51:32.260Z,5.00
2022-11-24T22:54:03.025Z,5.30
2022-11-24T22:56:32.364Z,5.80
2022-11-24T22:59:02.143Z,5.10
2022-11-24T23:01:32.184Z,5.40
2022-11-24T23:04:00.969Z,6.00
2022-11-24T23:06:31.593Z,5.50
2022-11-24T23:09:01.407Z,5.40
2022-11-24T23:11:38.633Z,5.60
2022-11-24T23:14:12.851Z,5.20
2022-11-24T23:16:41.514Z,5.10
2022-11-24T23:19:10.155Z,5.50
2022-11-24T23:21:39.305Z,5.50
2022-11-24T23:24:08.665Z,5.40
2022-11-24T23:26:40.834Z,6.40
2022-11-24T23:29:11.267Z,6.30
2022-11-24T23:31:39.500Z,6.40
2022-11-24T23:34:08.128Z,7.20
2022-11-24T23:36:36.524Z,6.10
2022-11-24T23:39:11.579Z,6.20
2022-11-24T23:41:39.829Z,6.40
2022-11-24T23:44:08.210Z,6.60
2022-11-24T23:46:37.415Z,6.70
2022-11-24T23:49:05.490Z,7.20
2022-11-24T23:51:33.977Z,7.20
2022-11-24T23:54:02.800Z,7.80
2022-11-24T23:56:32.783Z,7.00
2022-11-24T23:59:04.035Z,7.10
